Time;durP1;ratioP1;P1;durP2;ratioP2;P2;SDS_P1;SDS_P2;PMS_P1;PMS_P2;Temp;Humidity;BMP_temperature;BMP_pressure;BME280_temperature;BME280_humidity;BME280_pressure;Samples;Min_cycle;Max_cycle;Signal;HPM_P1;HPM_P2
2022/08/24 00:02:03;;;;;;;;;;;18.50;99.90;;;;;;6217052;23;19915;-82
2022/08/24 00:04:29;;;;;;;;;;;18.50;99.90;;;;;;6217553;23;19981;-82
2022/08/24 00:06:54;;;;;;;;;;;18.30;99.90;;;;;;6216694;23;20272;-82
2022/08/24 00:09:20;;;;;;;;;;;18.30;99.90;;;;;;6216808;23;19986;-83
2022/08/24 00:11:46;;;;;;;;;;;18.40;99.90;;;;;;6216627;23;19958;-82
2022/08/24 00:14:12;;;;;;;;;;;18.30;99.90;;;;;;6217710;23;20440;-82
2022/08/24 00:16:38;;;;;;;;;;;18.20;99.90;;;;;;6191944;23;19934;-82
2022/08/24 00:19:04;;;;;;;;;;;18.30;99.90;;;;;;6216626;23;20325;-83
2022/08/24 00:21:30;;;;;;;;;;;18.20;99.90;;;;;;6192175;23;19922;-83
2022/08/24 00:23:55;;;;;;;;;;;18.20;99.90;;;;;;6192383;23;19916;-83
2022/08/24 00:26:21;;;;;;;;;;;18.30;99.90;;;;;;6216914;23;19947;-82
2022/08/24 00:28:47;;;;;;;;;;;18.30;99.90;;;;;;6191878;23;19943;-83
2022/08/24 00:31:12;;;;;;;;;;;18.30;99.90;;;;;;6191364;23;19911;-82
2022/08/24 00:33:38;;;;;;;;;;;18.10;99.90;;;;;;6191308;23;19911;-81
2022/08/24 00:36:04;;;;;;;;;;;18.30;99.90;;;;;;6191409;23;19922;-82
2022/08/24 00:38:30;;;;;;;;;;;18.10;99.90;;;;;;6217416;23;20314;-82
2022/08/24 00:40:55;;;;;;;;;;;18.20;99.90;;;;;;6192420;23;19969;-83
2022/08/24 00:43:23;;;;;;;;;;;18.00;99.90;;;;;;6217060;23;19990;-82
2022/08/24 00:46:08;;;;;;;;;;;18.10;99.90;;;;;;6216868;23;20074;-82
2022/08/24 00:48:36;;;;;;;;;;;17.90;99.90;;;;;;6217382;23;19993;-83
2022/08/24 00:51:05;;;;;;;;;;;18.00;99.90;;;;;;6192305;23;19938;-82
2022/08/24 00:53:35;;;;;;;;;;;18.10;99.90;;;;;;6216405;23;19915;-82
2022/08/24 00:56:07;;;;;;;;;;;18.00;99.90;;;;;;6216044;23;19916;-82
2022/08/24 00:58:36;;;;;;;;;;;18.10;99.90;;;;;;6216653;23;19919;-81
2022/08/24 01:01:05;;;;;;;;;;;17.90;99.90;;;;;;6191950;23;19991;-81
2022/08/24 01:03:31;;;;;;;;;;;18.00;99.90;;;;;;6216751;23;20317;-82
2022/08/24 01:05:57;;;;;;;;;;;18.00;99.90;;;;;;6216683;23;19919;-82
2022/08/24 01:08:22;;;;;;;;;;;17.90;99.90;;;;;;6216556;23;19916;-82
2022/08/24 01:10:50;;;;;;;;;;;17.90;99.90;;;;;;6216277;23;19965;-81
2022/08/24 01:13:16;;;;;;;;;;;17.80;99.90;;;;;;6216721;23;19930;-82
2022/08/24 01:15:44;;;;;;;;;;;18.00;99.90;;;;;;6191403;23;20321;-82
2022/08/24 01:21:04;;;;;;;;;;;17.90;99.90;;;;;;6216189;23;19912;-82
2022/08/24 01:23:39;;;;;;;;;;;17.80;99.90;;;;;;6215918;23;20284;-82
2022/08/24 01:26:08;;;;;;;;;;;17.80;99.90;;;;;;6190778;23;19922;-82
2022/08/24 01:28:35;;;;;;;;;;;17.80;99.90;;;;;;6216116;23;20374;-81
2022/08/24 01:31:00;;;;;;;;;;;17.80;99.90;;;;;;6216364;23;20010;-81
2022/08/24 01:33:28;;;;;;;;;;;17.60;99.90;;;;;;6216436;23;19915;-82
2022/08/24 01:35:57;;;;;;;;;;;17.80;99.90;;;;;;6217140;23;20217;-82
2022/08/24 01:38:23;;;;;;;;;;;17.80;99.90;;;;;;6216832;23;20237;-82
2022/08/24 01:40:51;;;;;;;;;;;17.60;99.90;;;;;;6216622;23;19918;-82
2022/08/24 01:43:17;;;;;;;;;;;17.70;99.90;;;;;;6216830;23;19912;-82
2022/08/24 01:45:43;;;;;;;;;;;17.60;99.90;;;;;;6216393;23;19965;-82
2022/08/24 01:48:08;;;;;;;;;;;17.80;99.90;;;;;;6217026;23;19915;-82
2022/08/24 01:50:34;;;;;;;;;;;17.80;99.90;;;;;;6217155;23;19915;-82
2022/08/24 01:53:01;;;;;;;;;;;17.60;99.90;;;;;;6216857;23;19919;-82
2022/08/24 01:55:27;;;;;;;;;;;17.60;99.90;;;;;;6216897;23;20333;-82
2022/08/24 01:57:53;;;;;;;;;;;17.60;99.90;;;;;;6216685;23;19916;-82
2022/08/24 02:00:19;;;;;;;;;;;17.70;99.90;;;;;;6216317;23;19961;-82
2022/08/24 02:02:44;;;;;;;;;;;17.60;99.90;;;;;;6190936;23;19919;-82
2022/08/24 02:05:12;;;;;;;;;;;17.70;99.90;;;;;;6216638;23;19916;-82
2022/08/24 02:07:38;;;;;;;;;;;17.60;99.90;;;;;;6216963;23;19946;-82
2022/08/24 02:10:05;;;;;;;;;;;17.50;99.90;;;;;;6161866;23;19919;-83
2022/08/24 02:12:31;;;;;;;;;;;17.70;99.90;;;;;;6212085;23;20001;-82
2022/08/24 02:14:57;;;;;;;;;;;17.70;99.90;;;;;;6211522;23;20245;-82
2022/08/24 02:17:23;;;;;;;;;;;17.60;99.90;;;;;;6211423;23;19918;-82
2022/08/24 02:19:48;;;;;;;;;;;17.50;99.90;;;;;;6210968;23;19986;-82
2022/08/24 02:22:14;;;;;;;;;;;17.50;99.90;;;;;;6186102;23;19912;-82
2022/08/24 02:24:40;;;;;;;;;;;17.70;99.90;;;;;;6186732;23;20244;-82
2022/08/24 02:27:06;;;;;;;;;;;17.60;99.90;;;;;;6211243;23;19958;-82
2022/08/24 02:29:32;;;;;;;;;;;17.50;99.90;;;;;;6210144;23;19946;-82
2022/08/24 02:31:58;;;;;;;;;;;17.60;99.90;;;;;;6186654;23;20336;-82
2022/08/24 02:34:24;;;;;;;;;;;17.50;99.90;;;;;;6213377;23;20483;-82
2022/08/24 02:36:52;;;;;;;;;;;17.60;99.90;;;;;;6188639;23;19919;-82
2022/08/24 02:39:18;;;;;;;;;;;17.50;99.90;;;;;;6213146;23;20396;-82
2022/08/24 02:41:43;;;;;;;;;;;17.50;99.90;;;;;;6213795;23;19916;-82
2022/08/24 02:44:09;;;;;;;;;;;17.50;99.90;;;;;;6213474;23;19971;-82
2022/08/24 02:46:35;;;;;;;;;;;17.30;99.90;;;;;;6212979;23;19916;-82
2022/08/24 02:49:01;;;;;;;;;;;17.30;99.90;;;;;;6213196;23;19963;-82
2022/08/24 02:51:29;;;;;;;;;;;17.20;99.90;;;;;;6212347;23;19920;-82
2022/08/24 02:53:55;;;;;;;;;;;17.20;99.90;;;;;;6212654;23;19954;-82
2022/08/24 02:56:21;;;;;;;;;;;17.40;99.90;;;;;;6213943;23;19919;-82
2022/08/24 02:58:47;;;;;;;;;;;17.30;99.90;;;;;;6213611;23;19915;-83
2022/08/24 03:01:13;;;;;;;;;;;17.40;99.90;;;;;;6213893;23;20265;-82
2022/08/24 03:03:39;;;;;;;;;;;17.20;99.90;;;;;;6188645;23;19915;-82
2022/08/24 03:06:05;;;;;;;;;;;17.20;99.90;;;;;;6213606;23;20038;-83
2022/08/24 03:08:31;;;;;;;;;;;17.20;99.90;;;;;;6213978;23;20049;-84
2022/08/24 03:10:59;;;;;;;;;;;17.30;99.90;;;;;;6212625;23;20361;-84
2022/08/24 03:13:25;;;;;;;;;;;17.10;99.90;;;;;;6214479;23;19916;-84
2022/08/24 03:15:51;;;;;;;;;;;17.30;99.90;;;;;;6215681;23;19912;-84
2022/08/24 03:18:18;;;;;;;;;;;17.10;99.90;;;;;;6214720;23;19937;-82
2022/08/24 03:20:43;;;;;;;;;;;17.10;99.90;;;;;;6219497;23;19915;-85
2022/08/24 03:23:09;;;;;;;;;;;17.20;99.90;;;;;;6214366;23;19916;-84
2022/08/24 03:25:34;;;;;;;;;;;17.10;99.90;;;;;;6188641;23;19982;-84
2022/08/24 03:28:01;;;;;;;;;;;17.10;99.90;;;;;;6214722;23;19912;-84
2022/08/24 03:30:27;;;;;;;;;;;17.00;99.90;;;;;;6213474;23;19919;-84
2022/08/24 03:32:53;;;;;;;;;;;17.00;99.90;;;;;;6212610;23;19916;-84
2022/08/24 03:35:20;;;;;;;;;;;17.20;99.90;;;;;;6213710;23;20337;-84
2022/08/24 03:37:46;;;;;;;;;;;17.00;99.90;;;;;;6213742;23;20391;-83
2022/08/24 03:40:12;;;;;;;;;;;17.00;99.90;;;;;;6214032;23;19919;-84
2022/08/24 03:42:38;;;;;;;;;;;17.10;99.90;;;;;;6216586;23;19916;-87
2022/08/24 03:45:04;;;;;;;;;;;17.10;99.90;;;;;;6215989;23;19923;-85
2022/08/24 03:47:29;;;;;;;;;;;17.00;99.90;;;;;;6214419;23;19916;-86
2022/08/24 03:49:55;;;;;;;;;;;17.00;99.90;;;;;;6215216;23;19970;-84
2022/08/24 03:52:20;;;;;;;;;;;17.00;99.90;;;;;;6188750;23;19911;-84
2022/08/24 03:54:46;;;;;;;;;;;16.80;99.90;;;;;;6213465;23;20308;-83
2022/08/24 03:57:13;;;;;;;;;;;16.90;99.90;;;;;;6187289;23;19987;-84
2022/08/24 03:59:38;;;;;;;;;;;17.00;99.90;;;;;;6212318;23;19916;-84
2022/08/24 04:02:04;;;;;;;;;;;16.90;99.90;;;;;;6213603;23;19923;-85
2022/08/24 04:04:30;;;;;;;;;;;16.80;99.90;;;;;;6212610;23;19912;-85
2022/08/24 04:06:56;;;;;;;;;;;16.80;99.90;;;;;;6212168;23;19912;-84
2022/08/24 04:09:22;;;;;;;;;;;16.80;99.90;;;;;;6210681;23;19970;-83
2022/08/24 04:11:47;;;;;;;;;;;16.90;99.90;;;;;;6211277;23;19916;-83
2022/08/24 04:14:15;;;;;;;;;;;16.80;99.90;;;;;;6212307;23;19911;-82
2022/08/24 04:16:40;;;;;;;;;;;17.00;99.90;;;;;;6212150;23;19912;-82
2022/08/24 04:19:06;;;;;;;;;;;17.20;99.90;;;;;;6211133;23;20237;-82
2022/08/24 04:21:35;;;;;;;;;;;17.00;99.90;;;;;;6185943;23;20348;-81
2022/08/24 04:24:01;;;;;;;;;;;16.80;99.90;;;;;;6212325;23;19966;-81
2022/08/24 04:26:28;;;;;;;;;;;17.00;99.90;;;;;;6212020;23;19916;-82
2022/08/24 04:28:53;;;;;;;;;;;16.90;99.90;;;;;;6211513;23;19983;-81
2022/08/24 04:31:19;;;;;;;;;;;16.80;99.90;;;;;;6212252;23;19939;-81
2022/08/24 04:33:46;;;;;;;;;;;16.90;99.90;;;;;;6212075;23;19915;-82
2022/08/24 04:36:11;;;;;;;;;;;16.70;99.90;;;;;;6187411;23;19915;-81
2022/08/24 04:38:37;;;;;;;;;;;16.80;99.90;;;;;;6211919;23;19920;-82
2022/08/24 04:41:04;;;;;;;;;;;16.80;99.90;;;;;;6186743;23;19912;-82
2022/08/24 04:43:29;;;;;;;;;;;16.90;99.90;;;;;;6185742;23;19920;-82
2022/08/24 04:45:55;;;;;;;;;;;17.00;99.90;;;;;;6186346;23;19918;-81
2022/08/24 04:48:21;;;;;;;;;;;17.00;99.90;;;;;;6210082;23;19982;-81
2022/08/24 04:50:47;;;;;;;;;;;16.90;99.90;;;;;;6211484;23;19916;-81
2022/08/24 04:53:13;;;;;;;;;;;16.90;99.90;;;;;;6185994;23;19938;-80
2022/08/24 04:55:45;;;;;;;;;;;16.70;99.90;;;;;;6185708;23;19939;-82
2022/08/24 04:58:12;;;;;;;;;;;17.00;99.90;;;;;;6186617;23;19915;-83
2022/08/24 05:00:38;;;;;;;;;;;16.90;99.90;;;;;;6186071;23;19986;-82
2022/08/24 05:03:03;;;;;;;;;;;17.10;99.90;;;;;;6211509;23;20014;-82
2022/08/24 05:05:29;;;;;;;;;;;17.00;99.90;;;;;;6209695;23;20245;-82
2022/08/24 05:07:55;;;;;;;;;;;17.10;99.90;;;;;;6186001;23;19935;-82
2022/08/24 05:10:21;;;;;;;;;;;17.10;99.90;;;;;;6209070;23;19920;-82
2022/08/24 05:12:48;;;;;;;;;;;17.00;99.90;;;;;;6185547;23;19923;-82
2022/08/24 05:15:15;;;;;;;;;;;17.10;99.90;;;;;;6186541;23;19916;-82
2022/08/24 05:17:41;;;;;;;;;;;17.20;99.90;;;;;;6186127;23;19916;-83
2022/08/24 05:20:08;;;;;;;;;;;17.30;99.90;;;;;;6211515;23;19939;-83
2022/08/24 05:22:34;;;;;;;;;;;17.10;99.90;;;;;;6210219;23;19987;-83
2022/08/24 05:24:59;;;;;;;;;;;17.40;99.90;;;;;;6209348;23;20041;-82
2022/08/24 05:27:25;;;;;;;;;;;17.20;99.90;;;;;;6211126;23;19918;-82
2022/08/24 05:29:54;;;;;;;;;;;17.20;99.90;;;;;;6211667;23;19912;-82
2022/08/24 05:32:19;;;;;;;;;;;17.30;99.90;;;;;;6210324;23;19966;-82
2022/08/24 05:34:45;;;;;;;;;;;17.60;99.90;;;;;;6212481;23;19911;-82
2022/08/24 05:37:10;;;;;;;;;;;17.40;99.90;;;;;;6211133;23;19915;-82
2022/08/24 05:39:36;;;;;;;;;;;17.60;99.90;;;;;;6214212;23;19951;-82
2022/08/24 05:42:02;;;;;;;;;;;17.80;99.90;;;;;;6189974;23;19940;-82
2022/08/24 05:44:29;;;;;;;;;;;17.60;99.90;;;;;;6187852;23;19923;-81
2022/08/24 05:46:57;;;;;;;;;;;17.90;99.90;;;;;;6186109;23;19922;-81
2022/08/24 05:49:23;;;;;;;;;;;17.70;99.90;;;;;;6211658;23;19918;-81
2022/08/24 05:51:48;;;;;;;;;;;18.10;99.90;;;;;;6187414;23;19916;-81
2022/08/24 05:54:14;;;;;;;;;;;17.90;99.90;;;;;;6211764;23;19974;-81
2022/08/24 05:56:39;;;;;;;;;;;17.90;99.90;;;;;;6211880;23;19915;-80
2022/08/24 05:59:05;;;;;;;;;;;18.00;99.90;;;;;;6210018;23;19973;-77
2022/08/24 06:01:32;;;;;;;;;;;18.20;99.90;;;;;;6209745;23;19936;-78
2022/08/24 06:03:58;;;;;;;;;;;18.40;99.90;;;;;;6210856;23;19912;-77
2022/08/24 06:06:24;;;;;;;;;;;18.10;99.90;;;;;;6210586;23;20410;-77
2022/08/24 06:08:52;;;;;;;;;;;18.50;99.90;;;;;;6210412;23;20233;-76
2022/08/24 06:11:31;;;;;;;;;;;18.40;99.90;;;;;;6216117;23;19922;-77
2022/08/24 06:13:59;;;;;;;;;;;18.50;99.90;;;;;;6213327;23;19934;-76
2022/08/24 06:16:25;;;;;;;;;;;18.70;99.90;;;;;;6190157;23;19947;-77
2022/08/24 06:18:51;;;;;;;;;;;18.80;99.90;;;;;;6214584;23;19919;-77
2022/08/24 06:21:18;;;;;;;;;;;19.00;99.90;;;;;;6215668;23;19915;-77
2022/08/24 06:23:44;;;;;;;;;;;19.00;99.90;;;;;;6215398;23;20348;-77
2022/08/24 06:28:55;;;;;;;;;;;19.80;99.90;;;;;;6214480;23;19962;-77
2022/08/24 06:31:23;;;;;;;;;;;20.30;99.90;;;;;;6188541;23;19986;-77
2022/08/24 06:33:48;;;;;;;;;;;21.10;99.90;;;;;;6215257;23;19950;-78
2022/08/24 06:36:14;;;;;;;;;;;21.40;99.90;;;;;;6214966;23;19961;-82
2022/08/24 06:38:40;;;;;;;;;;;22.00;99.90;;;;;;6187894;23;19919;-81
2022/08/24 06:41:06;;;;;;;;;;;22.50;99.90;;;;;;6211916;23;19918;-81
2022/08/24 06:43:32;;;;;;;;;;;22.80;99.90;;;;;;6188624;23;20309;-82
2022/08/24 06:45:58;;;;;;;;;;;23.10;99.90;;;;;;6216283;23;19915;-82
2022/08/24 06:48:24;;;;;;;;;;;23.40;99.90;;;;;;6216318;23;19985;-82
2022/08/24 06:50:49;;;;;;;;;;;23.50;99.90;;;;;;6216790;23;20015;-82
2022/08/24 06:53:15;;;;;;;;;;;23.50;99.90;;;;;;6216062;23;19918;-82
2022/08/24 06:55:45;;;;;;;;;;;23.60;99.90;;;;;;6215964;23;19978;-81
2022/08/24 06:58:11;;;;;;;;;;;23.90;99.90;;;;;;6191229;23;19922;-82
2022/08/24 07:00:36;;;;;;;;;;;24.10;99.90;;;;;;6216161;23;19911;-82
2022/08/24 07:03:02;;;;;;;;;;;24.00;99.90;;;;;;6216018;23;20490;-82
2022/08/24 07:05:27;;;;;;;;;;;23.90;99.90;;;;;;6216134;23;19962;-82
2022/08/24 07:07:53;;;;;;;;;;;24.20;99.90;;;;;;6216105;23;19986;-82
2022/08/24 07:10:18;;;;;;;;;;;24.70;99.90;;;;;;6215638;23;19915;-83
2022/08/24 07:12:45;;;;;;;;;;;25.10;99.90;;;;;;6216129;23;19923;-82
2022/08/24 07:15:11;;;;;;;;;;;25.30;99.90;;;;;;6191394;23;19911;-82
2022/08/24 07:17:36;;;;;;;;;;;25.60;99.90;;;;;;6216478;23;19926;-83
2022/08/24 07:20:02;;;;;;;;;;;25.80;99.90;;;;;;6217457;23;19942;-82
2022/08/24 07:22:28;;;;;;;;;;;26.00;99.90;;;;;;6217819;23;19919;-83
2022/08/24 07:24:53;;;;;;;;;;;26.10;99.90;;;;;;6192712;23;19950;-83
2022/08/24 07:27:19;;;;;;;;;;;26.00;99.90;;;;;;6217701;23;19930;-83
2022/08/24 07:29:45;;;;;;;;;;;26.10;99.90;;;;;;6192860;23;20014;-83
2022/08/24 07:32:11;;;;;;;;;;;26.30;99.90;;;;;;6217666;23;20026;-83
2022/08/24 07:34:36;;;;;;;;;;;26.40;99.90;;;;;;6193441;23;19911;-83
2022/08/24 07:37:02;;;;;;;;;;;26.50;99.90;;;;;;6193325;23;20372;-84
2022/08/24 07:39:29;;;;;;;;;;;26.40;99.90;;;;;;6192796;23;20023;-84
2022/08/24 07:41:56;;;;;;;;;;;26.30;99.90;;;;;;6217634;23;19950;-84
2022/08/24 07:44:21;;;;;;;;;;;26.40;99.90;;;;;;6218298;23;19934;-84
2022/08/24 07:46:47;;;;;;;;;;;26.60;99.90;;;;;;6217610;23;20252;-83
2022/08/24 07:49:12;;;;;;;;;;;26.80;99.90;;;;;;6217605;23;19998;-82
2022/08/24 07:51:38;;;;;;;;;;;26.70;99.90;;;;;;6192366;23;19965;-83
2022/08/24 07:54:04;;;;;;;;;;;27.00;99.90;;;;;;6217894;23;20288;-85
2022/08/24 07:56:30;;;;;;;;;;;27.10;99.90;;;;;;6217759;23;19916;-84
2022/08/24 07:58:56;;;;;;;;;;;27.20;99.90;;;;;;6217499;23;20376;-85
2022/08/24 08:01:22;;;;;;;;;;;27.30;99.90;;;;;;6217348;23;20010;-84
2022/08/24 08:03:49;;;;;;;;;;;27.30;99.90;;;;;;6217351;23;19922;-84
2022/08/24 08:06:15;;;;;;;;;;;27.00;99.90;;;;;;6217900;23;19925;-84
2022/08/24 08:08:41;;;;;;;;;;;27.10;99.90;;;;;;6217407;23;19943;-83
2022/08/24 08:11:07;;;;;;;;;;;27.30;99.90;;;;;;6217177;23;19915;-84
2022/08/24 08:13:33;;;;;;;;;;;27.40;99.90;;;;;;6217427;23;19958;-83
2022/08/24 08:15:59;;;;;;;;;;;27.20;99.90;;;;;;6217470;23;19911;-84
2022/08/24 08:18:26;;;;;;;;;;;27.10;99.90;;;;;;6192051;23;19985;-83
2022/08/24 08:20:51;;;;;;;;;;;27.30;99.90;;;;;;6217477;23;19911;-84
2022/08/24 08:26:01;;;;;;;;;;;27.30;99.90;;;;;;6217127;23;19915;-84
2022/08/24 08:28:32;;;;;;;;;;;27.50;99.90;;;;;;6217549;23;19947;-84
2022/08/24 08:31:02;;;;;;;;;;;27.40;99.80;;;;;;6217063;23;19922;-85
2022/08/24 08:33:27;;;;;;;;;;;27.50;99.90;;;;;;6217471;23;19915;-83
2022/08/24 08:36:13;;;;;;;;;;;27.50;99.80;;;;;;6217236;23;19980;-83
2022/08/24 08:38:39;;;;;;;;;;;27.60;99.90;;;;;;6216904;23;19919;-83
2022/08/24 08:41:16;;;;;;;;;;;27.70;99.30;;;;;;6217260;23;20297;-83
2022/08/24 08:43:42;;;;;;;;;;;27.80;99.90;;;;;;6217074;23;20345;-83
2022/08/24 08:46:43;;;;;;;;;;;27.90;99.70;;;;;;6191887;23;19911;-84
2022/08/24 08:49:09;;;;;;;;;;;28.00;99.20;;;;;;6096899;23;19917;-84
2022/08/24 08:51:48;;;;;;;;;;;28.10;99.40;;;;;;6192295;23;19946;-84
2022/08/24 08:54:32;;;;;;;;;;;27.90;98.90;;;;;;6217158;23;19922;-85
2022/08/24 08:56:58;;;;;;;;;;;28.00;99.30;;;;;;6216831;23;20305;-84
2022/08/24 08:59:42;;;;;;;;;;;28.30;99.20;;;;;;6216798;23;19926;-84
2022/08/24 09:02:14;;;;;;;;;;;28.50;99.30;;;;;;6216842;23;19911;-84
2022/08/24 09:04:58;;;;;;;;;;;28.50;98.90;;;;;;6216726;23;19990;-83
2022/08/24 09:07:39;;;;;;;;;;;28.60;98.40;;;;;;6216640;23;19911;-84
2022/08/24 09:10:15;;;;;;;;;;;28.80;98.40;;;;;;6191295;23;19926;-85
2022/08/24 09:12:44;;;;;;;;;;;29.00;98.30;;;;;;6217001;23;20317;-84
2022/08/24 09:15:28;;;;;;;;;;;29.20;98.10;;;;;;6216667;23;19939;-84
2022/08/24 09:17:54;;;;;;;;;;;29.10;98.10;;;;;;6191398;23;20278;-85
2022/08/24 09:20:47;;;;;;;;;;;29.10;97.60;;;;;;6216652;23;19973;-84
2022/08/24 09:23:20;;;;;;;;;;;29.20;98.30;;;;;;6216399;23;19916;-85
2022/08/24 09:25:58;;;;;;;;;;;29.20;97.70;;;;;;6216687;23;19958;-84
2022/08/24 09:28:43;;;;;;;;;;;29.20;97.70;;;;;;6216332;23;19994;-84
2022/08/24 09:31:08;;;;;;;;;;;29.30;97.20;;;;;;6216464;23;19911;-84
2022/08/24 09:34:00;;;;;;;;;;;29.40;97.20;;;;;;6191244;23;20425;-82
2022/08/24 09:36:32;;;;;;;;;;;29.60;97.10;;;;;;6211147;23;19915;-84
2022/08/24 09:38:58;;;;;;;;;;;29.50;96.50;;;;;;6216911;23;19927;-84
2022/08/24 09:41:42;;;;;;;;;;;29.50;96.90;;;;;;6216777;23;19958;-84
2022/08/24 09:44:11;;;;;;;;;;;29.50;97.10;;;;;;6191442;23;19947;-84
2022/08/24 09:46:46;;;;;;;;;;;29.70;97.50;;;;;;6191182;23;20309;-84
2022/08/24 09:49:11;;;;;;;;;;;29.80;96.70;;;;;;6215952;23;19919;-84
2022/08/24 09:51:43;;;;;;;;;;;29.90;96.30;;;;;;6216500;23;19912;-84
2022/08/24 09:54:08;;;;;;;;;;;29.70;96.80;;;;;;6216217;23;19911;-84
2022/08/24 09:56:37;;;;;;;;;;;29.70;96.20;;;;;;6191329;23;19946;-83
2022/08/24 09:59:11;;;;;;;;;;;29.90;96.60;;;;;;6216310;23;20249;-84
2022/08/24 10:01:41;;;;;;;;;;;30.00;96.60;;;;;;6216338;23;19986;-83
2022/08/24 10:04:10;;;;;;;;;;;30.00;96.50;;;;;;6216354;23;20053;-83
2022/08/24 10:06:35;;;;;;;;;;;29.80;96.40;;;;;;6215883;23;19990;-84
2022/08/24 10:09:08;;;;;;;;;;;29.90;95.80;;;;;;6216340;23;20302;-83
2022/08/24 10:11:33;;;;;;;;;;;29.80;96.30;;;;;;6216191;23;19922;-83
2022/08/24 10:14:11;;;;;;;;;;;29.70;96.10;;;;;;6216563;23;20380;-83
2022/08/24 10:16:41;;;;;;;;;;;29.90;96.20;;;;;;6216038;23;19911;-84
2022/08/24 10:19:26;;;;;;;;;;;30.10;96.20;;;;;;6191415;23;19915;-82
2022/08/24 10:22:05;;;;;;;;;;;30.10;95.90;;;;;;6216336;23;19922;-84
2022/08/24 10:24:49;;;;;;;;;;;30.30;96.00;;;;;;6216194;23;20029;-83
2022/08/24 10:27:19;;;;;;;;;;;30.50;96.10;;;;;;6216080;23;19923;-83
2022/08/24 10:30:04;;;;;;;;;;;30.60;95.90;;;;;;6215932;23;20382;-83
2022/08/24 10:32:42;;;;;;;;;;;30.50;95.10;;;;;;6216112;23;20613;-83
2022/08/24 10:35:31;;;;;;;;;;;30.50;95.30;;;;;;6216184;23;20329;-83
2022/08/24 10:40:53;;;;;;;;;;;30.40;96.70;;;;;;6216386;23;19915;-83
2022/08/24 10:43:39;;;;;;;;;;;30.20;95.50;;;;;;6216087;23;19919;-83
2022/08/24 10:46:13;;;;;;;;;;;30.40;96.50;;;;;;6189920;23;20244;-82
2022/08/24 10:48:42;;;;;;;;;;;30.50;95.90;;;;;;6216488;23;19911;-83
2022/08/24 10:51:23;;;;;;;;;;;30.60;95.60;;;;;;6216409;23;20016;-84
2022/08/24 10:53:50;;;;;;;;;;;30.80;95.50;;;;;;6216764;23;19912;-84
2022/08/24 10:56:35;;;;;;;;;;;31.00;94.80;;;;;;6218019;23;20252;-83
2022/08/24 10:59:06;;;;;;;;;;;31.00;95.90;;;;;;6157707;23;19995;-83
2022/08/24 11:01:33;;;;;;;;;;;31.10;94.40;;;;;;6192955;23;19941;-83
2022/08/24 11:04:09;;;;;;;;;;;31.10;94.70;;;;;;6245132;23;19934;-83
2022/08/24 11:06:37;;;;;;;;;;;31.20;94.80;;;;;;6217889;23;19922;-83
2022/08/24 11:09:13;;;;;;;;;;;31.40;94.70;;;;;;6217746;23;19966;-83
2022/08/24 11:11:40;;;;;;;;;;;31.50;94.60;;;;;;6218006;23;20270;-82
2022/08/24 11:14:06;;;;;;;;;;;31.50;94.10;;;;;;6218033;23;19922;-83
2022/08/24 11:16:34;;;;;;;;;;;31.40;94.80;;;;;;6217870;23;20297;-83
2022/08/24 11:19:01;;;;;;;;;;;31.20;94.10;;;;;;6193069;23;19919;-83
2022/08/24 11:21:31;;;;;;;;;;;31.00;94.60;;;;;;6217567;23;19919;-84
2022/08/24 11:24:00;;;;;;;;;;;30.80;94.40;;;;;;6217968;23;19958;-83
2022/08/24 11:26:26;;;;;;;;;;;30.60;94.30;;;;;;6217642;23;19922;-83
2022/08/24 11:28:53;;;;;;;;;;;30.50;94.90;;;;;;6193043;23;20288;-84
2022/08/24 11:31:21;;;;;;;;;;;30.50;94.60;;;;;;6192669;23;19943;-84
2022/08/24 11:33:48;;;;;;;;;;;30.40;94.70;;;;;;6217768;23;19911;-83
2022/08/24 11:36:18;;;;;;;;;;;30.10;94.60;;;;;;6217814;23;19911;-84
2022/08/24 11:38:46;;;;;;;;;;;30.00;94.90;;;;;;6192760;23;19927;-84
2022/08/24 11:41:33;;;;;;;;;;;29.90;94.70;;;;;;6217643;23;19947;-84
2022/08/24 11:44:02;;;;;;;;;;;29.90;95.00;;;;;;6217676;23;19990;-84
2022/08/24 11:46:40;;;;;;;;;;;29.80;95.30;;;;;;6217747;23;19983;-84
2022/08/24 11:49:06;;;;;;;;;;;29.70;94.90;;;;;;6217619;23;19911;-84
2022/08/24 11:51:38;;;;;;;;;;;29.80;95.00;;;;;;6217718;23;19994;-84
2022/08/24 11:54:11;;;;;;;;;;;30.20;94.90;;;;;;6217646;23;19919;-85
2022/08/24 11:56:44;;;;;;;;;;;30.40;94.80;;;;;;6217898;23;20336;-84
2022/08/24 11:59:28;;;;;;;;;;;30.80;94.70;;;;;;6218005;23;19920;-84
2022/08/24 12:01:56;;;;;;;;;;;31.40;94.80;;;;;;6192610;23;19918;-84
2022/08/24 12:04:35;;;;;;;;;;;31.50;94.20;;;;;;6217865;23;20460;-85
2022/08/24 12:07:08;;;;;;;;;;;31.70;94.20;;;;;;6217920;23;20357;-84
2022/08/24 12:09:33;;;;;;;;;;;31.30;93.90;;;;;;6222782;23;19951;-83
2022/08/24 12:12:03;;;;;;;;;;;31.20;94.30;;;;;;6217337;23;19911;-83
2022/08/24 12:14:40;;;;;;;;;;;31.00;94.00;;;;;;6192206;23;19915;-84
2022/08/24 12:17:17;;;;;;;;;;;30.80;94.20;;;;;;6217324;23;20222;-83
2022/08/24 12:19:46;;;;;;;;;;;30.70;94.30;;;;;;6217160;23;19924;-84
2022/08/24 12:22:12;;;;;;;;;;;30.50;94.70;;;;;;6192171;23;19911;-84
2022/08/24 12:24:39;;;;;;;;;;;30.40;94.50;;;;;;6217335;23;20321;-83
2022/08/24 12:27:09;;;;;;;;;;;30.40;94.50;;;;;;6216889;23;20006;-84
2022/08/24 12:29:35;;;;;;;;;;;30.50;95.10;;;;;;6217051;23;19915;-84
2022/08/24 12:32:04;;;;;;;;;;;30.70;94.50;;;;;;6192181;23;19915;-83
2022/08/24 12:34:48;;;;;;;;;;;31.10;95.30;;;;;;6217124;23;19918;-83
2022/08/24 12:37:14;;;;;;;;;;;31.60;94.80;;;;;;6217096;23;19934;-83
2022/08/24 12:40:05;;;;;;;;;;;31.70;93.60;;;;;;6192160;23;20318;-84
2022/08/24 12:42:44;;;;;;;;;;;31.70;93.90;;;;;;6178273;23;20007;-84
2022/08/24 12:45:11;;;;;;;;;;;31.40;94.10;;;;;;6217124;23;20042;-84
2022/08/24 12:47:43;;;;;;;;;;;31.20;93.90;;;;;;6217309;23;19915;-84
2022/08/24 12:50:11;;;;;;;;;;;31.20;93.90;;;;;;6191964;23;19954;-84
2022/08/24 12:52:56;;;;;;;;;;;31.50;94.20;;;;;;6217020;23;19957;-83
2022/08/24 12:55:21;;;;;;;;;;;31.50;93.60;;;;;;6217232;23;20236;-84
2022/08/24 12:57:56;;;;;;;;;;;31.10;93.60;;;;;;6244771;23;19947;-84
2022/08/24 13:00:26;;;;;;;;;;;30.90;93.70;;;;;;6192638;23;19943;-84
2022/08/24 13:03:00;;;;;;;;;;;30.60;94.10;;;;;;6216937;23;20256;-83
2022/08/24 13:05:37;;;;;;;;;;;30.50;94.10;;;;;;6216716;23;19915;-84
2022/08/24 13:08:10;;;;;;;;;;;30.50;94.10;;;;;;6216596;23;20437;-84
2022/08/24 13:10:39;;;;;;;;;;;30.40;94.30;;;;;;6216775;23;19969;-84
2022/08/24 13:13:06;;;;;;;;;;;30.30;94.30;;;;;;6191643;23;19942;-83
2022/08/24 13:15:34;;;;;;;;;;;30.20;94.40;;;;;;6191927;23;20381;-83
2022/08/24 13:18:12;;;;;;;;;;;30.20;94.30;;;;;;6216426;23;20262;-84
2022/08/24 13:20:41;;;;;;;;;;;30.30;94.20;;;;;;6191660;23;19915;-84
2022/08/24 13:23:10;;;;;;;;;;;30.30;94.00;;;;;;6191699;23;19922;-84
2022/08/24 13:25:38;;;;;;;;;;;30.20;94.20;;;;;;6191183;23;19983;-84
2022/08/24 13:28:07;;;;;;;;;;;30.10;94.20;;;;;;6217214;23;19946;-84
2022/08/24 13:30:35;;;;;;;;;;;30.00;94.20;;;;;;6216585;23;20288;-84
2022/08/24 13:33:04;;;;;;;;;;;30.00;94.20;;;;;;6216521;23;19912;-83
2022/08/24 13:35:35;;;;;;;;;;;29.90;94.30;;;;;;6216847;23;19938;-84
2022/08/24 13:38:20;;;;;;;;;;;30.00;94.50;;;;;;6243649;23;20245;-84
2022/08/24 13:40:48;;;;;;;;;;;29.80;94.60;;;;;;6191582;23;20041;-83
2022/08/24 13:43:14;;;;;;;;;;;29.70;93.80;;;;;;6216519;23;19922;-83
2022/08/24 13:45:45;;;;;;;;;;;29.50;94.30;;;;;;6216766;23;19978;-84
2022/08/24 13:48:11;;;;;;;;;;;29.60;94.90;;;;;;6216619;23;19911;-83
2022/08/24 13:50:39;;;;;;;;;;;29.60;94.60;;;;;;6216525;23;19921;-83
2022/08/24 13:53:25;;;;;;;;;;;29.90;94.60;;;;;;6216272;23;20270;-83
2022/08/24 13:55:52;;;;;;;;;;;30.40;94.60;;;;;;6191273;23;19915;-82
2022/08/24 13:58:21;;;;;;;;;;;31.00;94.30;;;;;;6191500;23;19981;-83
2022/08/24 14:00:51;;;;;;;;;;;31.50;94.20;;;;;;6216723;23;19911;-83
2022/08/24 14:03:20;;;;;;;;;;;31.70;94.10;;;;;;6217076;23;19912;-83
2022/08/24 14:05:49;;;;;;;;;;;31.30;94.10;;;;;;6216609;23;19990;-83
2022/08/24 14:08:18;;;;;;;;;;;30.90;94.40;;;;;;6191835;23;19915;-83
2022/08/24 14:10:52;;;;;;;;;;;30.50;94.10;;;;;;6188832;23;19933;-82
2022/08/24 14:13:31;;;;;;;;;;;30.10;94.60;;;;;;6216164;23;19935;-83
2022/08/24 14:18:58;;;;;;;;;;;29.70;94.70;;;;;;6215753;23;19954;-82
2022/08/24 14:21:34;;;;;;;;;;;29.50;94.60;;;;;;6216223;23;20198;-82
2022/08/24 14:24:06;;;;;;;;;;;29.40;95.20;;;;;;6216836;23;19979;-82
2022/08/24 14:26:32;;;;;;;;;;;29.20;95.30;;;;;;6216199;23;19912;-82
2022/08/24 14:29:19;;;;;;;;;;;29.10;95.50;;;;;;6214789;23;19969;-84
2022/08/24 14:32:01;;;;;;;;;;;29.00;95.60;;;;;;6216863;23;20003;-84
2022/08/24 14:34:32;;;;;;;;;;;28.90;95.60;;;;;;6217841;23;19923;-83
2022/08/24 14:37:07;;;;;;;;;;;28.80;95.70;;;;;;6215565;23;19981;-84
2022/08/24 14:39:50;;;;;;;;;;;28.70;95.90;;;;;;6218294;23;19924;-83
2022/08/24 14:42:36;;;;;;;;;;;28.60;95.80;;;;;;6218704;23;19986;-82